sensor_id;sensor_type;location;lat;lon;timestamp;temperature;humidity
3846;DHT22;1938;50.812;7.738;2023-03-13T00:02:09;7.40;1.00
3846;DHT22;1938;50.812;7.738;2023-03-13T00:04:34;7.40;1.00
3846;DHT22;1938;50.812;7.738;2023-03-13T00:07:00;7.50;1.00
3846;DHT22;1938;50.812;7.738;2023-03-13T00:09:25;7.50;1.00
3846;DHT22;1938;50.812;7.738;2023-03-13T00:11:51;7.50;1.00
3846;DHT22;1938;50.812;7.738;2023-03-13T00:14:17;7.60;1.00
3846;DHT22;1938;50.812;7.738;2023-03-13T00:16:42;7.60;1.00
3846;DHT22;1938;50.812;7.738;2023-03-13T00:19:08;7.50;1.00
3846;DHT22;1938;50.812;7.738;2023-03-13T00:21:34;7.60;1.00
3846;DHT22;1938;50.812;7.738;2023-03-13T00:24:01;7.70;1.00
3846;DHT22;1938;50.812;7.738;2023-03-13T00:26:29;7.70;1.00
3846;DHT22;1938;50.812;7.738;2023-03-13T00:28:55;7.70;1.00
3846;DHT22;1938;50.812;7.738;2023-03-13T00:31:23;7.70;1.00
3846;DHT22;1938;50.812;7.738;2023-03-13T00:33:51;7.70;1.00
3846;DHT22;1938;50.812;7.738;2023-03-13T00:36:26;7.70;1.00
3846;DHT22;1938;50.812;7.738;2023-03-13T00:38:53;7.80;1.00
3846;DHT22;1938;50.812;7.738;2023-03-13T00:41:24;7.80;1.00
3846;DHT22;1938;50.812;7.738;2023-03-13T00:43:50;7.80;1.00
3846;DHT22;1938;50.812;7.738;2023-03-13T00:46:19;7.90;1.00
3846;DHT22;1938;50.812;7.738;2023-03-13T00:48:45;8.00;1.00
3846;DHT22;1938;50.812;7.738;2023-03-13T00:51:12;8.00;1.00
3846;DHT22;1938;50.812;7.738;2023-03-13T00:53:39;8.10;1.00
3846;DHT22;1938;50.812;7.738;2023-03-13T00:56:13;8.10;1.00
3846;DHT22;1938;50.812;7.738;2023-03-13T00:58:40;8.10;1.00
3846;DHT22;1938;50.812;7.738;2023-03-13T01:01:52;8.10;1.00
3846;DHT22;1938;50.812;7.738;2023-03-13T01:04:13;8.10;1.00
3846;DHT22;1938;50.812;7.738;2023-03-13T01:06:40;8.10;1.00
3846;DHT22;1938;50.812;7.738;2023-03-13T01:09:09;8.00;1.00
3846;DHT22;1938;50.812;7.738;2023-03-13T01:11:37;8.10;1.00
3846;DHT22;1938;50.812;7.738;2023-03-13T01:14:05;8.20;1.90
3846;DHT22;1938;50.812;7.738;2023-03-13T01:16:33;8.20;1.00
3846;DHT22;1938;50.812;7.738;2023-03-13T01:19:04;8.20;1.00
3846;DHT22;1938;50.812;7.738;2023-03-13T01:21:30;8.30;1.00
3846;DHT22;1938;50.812;7.738;2023-03-13T01:23:56;8.30;1.00
3846;DHT22;1938;50.812;7.738;2023-03-13T01:26:22;8.40;1.00
3846;DHT22;1938;50.812;7.738;2023-03-13T01:28:48;8.40;1.00
3846;DHT22;1938;50.812;7.738;2023-03-13T01:31:25;8.40;1.00
3846;DHT22;1938;50.812;7.738;2023-03-13T01:33:54;8.40;1.00
3846;DHT22;1938;50.812;7.738;2023-03-13T01:36:22;8.40;40.20
3846;DHT22;1938;50.812;7.738;2023-03-13T01:38:53;8.40;62.70
3846;DHT22;1938;50.812;7.738;2023-03-13T01:41:19;8.50;99.90
3846;DHT22;1938;50.812;7.738;2023-03-13T01:43:45;8.40;99.90
3846;DHT22;1938;50.812;7.738;2023-03-13T01:46:19;8.40;99.90
3846;DHT22;1938;50.812;7.738;2023-03-13T01:51:37;8.40;99.90
3846;DHT22;1938;50.812;7.738;2023-03-13T01:54:37;8.40;99.90
3846;DHT22;1938;50.812;7.738;2023-03-13T01:59:58;8.50;99.90
3846;DHT22;1938;50.812;7.738;2023-03-13T02:02:25;8.30;99.90
3846;DHT22;1938;50.812;7.738;2023-03-13T02:04:55;8.20;99.90
3846;DHT22;1938;50.812;7.738;2023-03-13T02:07:32;8.20;99.90
3846;DHT22;1938;50.812;7.738;2023-03-13T02:10:00;8.10;99.90
3846;DHT22;1938;50.812;7.738;2023-03-13T02:12:32;8.00;99.90
3846;DHT22;1938;50.812;7.738;2023-03-13T02:15:00;8.00;99.90
3846;DHT22;1938;50.812;7.738;2023-03-13T02:17:27;8.10;99.90
3846;DHT22;1938;50.812;7.738;2023-03-13T02:19:53;8.10;99.90
3846;DHT22;1938;50.812;7.738;2023-03-13T02:25:27;8.00;99.90
3846;DHT22;1938;50.812;7.738;2023-03-13T02:27:57;8.10;99.90
3846;DHT22;1938;50.812;7.738;2023-03-13T02:30:24;8.10;99.90
3846;DHT22;1938;50.812;7.738;2023-03-13T02:32:51;8.10;99.90
3846;DHT22;1938;50.812;7.738;2023-03-13T02:35:18;8.10;99.90
3846;DHT22;1938;50.812;7.738;2023-03-13T02:37:49;8.20;99.90
3846;DHT22;1938;50.812;7.738;2023-03-13T02:40:19;8.20;99.90
3846;DHT22;1938;50.812;7.738;2023-03-13T02:42:47;8.20;99.90
3846;DHT22;1938;50.812;7.738;2023-03-13T02:45:15;8.20;99.90
3846;DHT22;1938;50.812;7.738;2023-03-13T02:47:41;8.20;99.90
3846;DHT22;1938;50.812;7.738;2023-03-13T02:50:08;8.30;99.90
3846;DHT22;1938;50.812;7.738;2023-03-13T02:52:39;8.20;99.90
3846;DHT22;1938;50.812;7.738;2023-03-13T02:55:44;8.30;99.90
3846;DHT22;1938;50.812;7.738;2023-03-13T02:58:10;8.40;99.90
3846;DHT22;1938;50.812;7.738;2023-03-13T03:00:36;8.40;99.90
3846;DHT22;1938;50.812;7.738;2023-03-13T03:03:02;8.40;99.90
3846;DHT22;1938;50.812;7.738;2023-03-13T03:05:28;8.50;99.90
3846;DHT22;1938;50.812;7.738;2023-03-13T03:07:54;8.50;99.90
3846;DHT22;1938;50.812;7.738;2023-03-13T03:10:20;8.60;99.90
3846;DHT22;1938;50.812;7.738;2023-03-13T03:12:45;8.60;99.90
3846;DHT22;1938;50.812;7.738;2023-03-13T03:15:11;8.60;99.90
3846;DHT22;1938;50.812;7.738;2023-03-13T03:17:38;8.50;99.90
3846;DHT22;1938;50.812;7.738;2023-03-13T03:20:05;8.60;99.90
3846;DHT22;1938;50.812;7.738;2023-03-13T03:22:36;8.60;99.90
3846;DHT22;1938;50.812;7.738;2023-03-13T03:25:03;8.60;99.90
3846;DHT22;1938;50.812;7.738;2023-03-13T03:27:31;8.60;99.90
3846;DHT22;1938;50.812;7.738;2023-03-13T03:29:56;8.60;99.90
3846;DHT22;1938;50.812;7.738;2023-03-13T03:32:22;8.60;99.90
3846;DHT22;1938;50.812;7.738;2023-03-13T03:34:47;8.60;99.90
3846;DHT22;1938;50.812;7.738;2023-03-13T03:37:14;8.70;99.90
3846;DHT22;1938;50.812;7.738;2023-03-13T03:39:39;8.60;99.90
3846;DHT22;1938;50.812;7.738;2023-03-13T03:42:05;8.60;99.90
3846;DHT22;1938;50.812;7.738;2023-03-13T03:44:30;8.60;99.90
3846;DHT22;1938;50.812;7.738;2023-03-13T03:46:56;8.60;99.90
3846;DHT22;1938;50.812;7.738;2023-03-13T03:49:21;8.60;99.90
3846;DHT22;1938;50.812;7.738;2023-03-13T03:51:48;8.60;99.90
3846;DHT22;1938;50.812;7.738;2023-03-13T03:54:15;8.70;99.90
3846;DHT22;1938;50.812;7.738;2023-03-13T03:56:40;8.60;99.90
3846;DHT22;1938;50.812;7.738;2023-03-13T03:59:06;8.60;99.90
3846;DHT22;1938;50.812;7.738;2023-03-13T04:01:31;8.70;99.90
3846;DHT22;1938;50.812;7.738;2023-03-13T04:03:57;8.70;99.90
3846;DHT22;1938;50.812;7.738;2023-03-13T04:06:22;8.60;99.90
3846;DHT22;1938;50.812;7.738;2023-03-13T04:08:48;8.70;99.90
3846;DHT22;1938;50.812;7.738;2023-03-13T04:11:13;8.70;99.90
3846;DHT22;1938;50.812;7.738;2023-03-13T04:13:39;8.70;99.90
3846;DHT22;1938;50.812;7.738;2023-03-13T04:16:08;8.70;99.90
3846;DHT22;1938;50.812;7.738;2023-03-13T04:18:34;8.80;99.90
3846;DHT22;1938;50.812;7.738;2023-03-13T04:21:01;8.70;99.90
3846;DHT22;1938;50.812;7.738;2023-03-13T04:23:26;8.80;99.90
3846;DHT22;1938;50.812;7.738;2023-03-13T04:25:52;8.80;99.90
3846;DHT22;1938;50.812;7.738;2023-03-13T04:28:18;8.80;99.90
3846;DHT22;1938;50.812;7.738;2023-03-13T04:30:43;8.90;99.90
3846;DHT22;1938;50.812;7.738;2023-03-13T04:33:09;8.90;99.90
3846;DHT22;1938;50.812;7.738;2023-03-13T04:35:34;8.90;99.90
3846;DHT22;1938;50.812;7.738;2023-03-13T04:38:00;8.90;99.90
3846;DHT22;1938;50.812;7.738;2023-03-13T04:40:27;8.90;99.90
3846;DHT22;1938;50.812;7.738;2023-03-13T04:42:52;9.00;99.90
3846;DHT22;1938;50.812;7.738;2023-03-13T04:45:18;9.10;99.90
3846;DHT22;1938;50.812;7.738;2023-03-13T04:47:45;9.00;99.90
3846;DHT22;1938;50.812;7.738;2023-03-13T04:50:11;9.00;99.90
3846;DHT22;1938;50.812;7.738;2023-03-13T04:52:36;9.10;99.90
3846;DHT22;1938;50.812;7.738;2023-03-13T04:55:02;9.10;99.90
3846;DHT22;1938;50.812;7.738;2023-03-13T04:57:28;9.10;99.90
3846;DHT22;1938;50.812;7.738;2023-03-13T04:59:53;9.20;99.90
3846;DHT22;1938;50.812;7.738;2023-03-13T05:02:19;9.30;99.90
3846;DHT22;1938;50.812;7.738;2023-03-13T05:04:45;9.40;99.90
3846;DHT22;1938;50.812;7.738;2023-03-13T05:07:11;9.40;99.90
3846;DHT22;1938;50.812;7.738;2023-03-13T05:09:36;9.40;99.90
3846;DHT22;1938;50.812;7.738;2023-03-13T05:12:02;9.50;99.90
3846;DHT22;1938;50.812;7.738;2023-03-13T05:14:29;9.50;99.90
3846;DHT22;1938;50.812;7.738;2023-03-13T05:16:54;9.50;99.90
3846;DHT22;1938;50.812;7.738;2023-03-13T05:19:20;9.50;99.90
3846;DHT22;1938;50.812;7.738;2023-03-13T05:21:45;9.50;99.90
3846;DHT22;1938;50.812;7.738;2023-03-13T05:24:11;9.60;99.90
3846;DHT22;1938;50.812;7.738;2023-03-13T05:26:36;9.60;99.90
3846;DHT22;1938;50.812;7.738;2023-03-13T05:29:03;9.60;99.90
3846;DHT22;1938;50.812;7.738;2023-03-13T05:31:28;9.60;99.90
3846;DHT22;1938;50.812;7.738;2023-03-13T05:33:54;9.60;99.90
3846;DHT22;1938;50.812;7.738;2023-03-13T05:36:20;9.60;99.90
3846;DHT22;1938;50.812;7.738;2023-03-13T05:38:46;9.60;99.90
3846;DHT22;1938;50.812;7.738;2023-03-13T05:41:11;9.60;99.90
3846;DHT22;1938;50.812;7.738;2023-03-13T05:43:38;9.60;99.90
3846;DHT22;1938;50.812;7.738;2023-03-13T05:46:04;9.60;99.90
3846;DHT22;1938;50.812;7.738;2023-03-13T05:48:29;9.60;99.90
3846;DHT22;1938;50.812;7.738;2023-03-13T05:50:55;9.60;99.90
3846;DHT22;1938;50.812;7.738;2023-03-13T05:53:20;9.70;99.90
3846;DHT22;1938;50.812;7.738;2023-03-13T05:55:47;9.70;99.90
3846;DHT22;1938;50.812;7.738;2023-03-13T05:58:12;9.70;99.90
3846;DHT22;1938;50.812;7.738;2023-03-13T06:00:38;9.70;99.90
3846;DHT22;1938;50.812;7.738;2023-03-13T06:03:03;9.70;99.90
3846;DHT22;1938;50.812;7.738;2023-03-13T06:05:30;9.70;99.90
3846;DHT22;1938;50.812;7.738;2023-03-13T06:07:55;9.60;99.90
3846;DHT22;1938;50.812;7.738;2023-03-13T06:10:21;9.60;99.90
3846;DHT22;1938;50.812;7.738;2023-03-13T06:12:54;9.60;99.90
3846;DHT22;1938;50.812;7.738;2023-03-13T06:15:20;9.60;99.90
3846;DHT22;1938;50.812;7.738;2023-03-13T06:17:45;9.70;99.90
3846;DHT22;1938;50.812;7.738;2023-03-13T06:20:11;9.70;99.90
3846;DHT22;1938;50.812;7.738;2023-03-13T06:22:37;9.70;99.90
3846;DHT22;1938;50.812;7.738;2023-03-13T06:25:02;9.80;99.90
3846;DHT22;1938;50.812;7.738;2023-03-13T06:27:28;9.90;99.90
3846;DHT22;1938;50.812;7.738;2023-03-13T06:29:54;9.90;99.90
3846;DHT22;1938;50.812;7.738;2023-03-13T06:32:19;9.90;99.90
3846;DHT22;1938;50.812;7.738;2023-03-13T06:34:45;9.90;99.90
3846;DHT22;1938;50.812;7.738;2023-03-13T06:37:11;10.00;99.90
3846;DHT22;1938;50.812;7.738;2023-03-13T06:39:37;10.10;99.90
3846;DHT22;1938;50.812;7.738;2023-03-13T06:42:03;10.10;99.90
3846;DHT22;1938;50.812;7.738;2023-03-13T06:44:29;10.10;99.90
3846;DHT22;1938;50.812;7.738;2023-03-13T06:46:54;10.10;99.90
3846;DHT22;1938;50.812;7.738;2023-03-13T06:49:20;10.10;99.90
3846;DHT22;1938;50.812;7.738;2023-03-13T06:51:45;10.10;99.90
3846;DHT22;1938;50.812;7.738;2023-03-13T06:54:11;10.20;99.90
3846;DHT22;1938;50.812;7.738;2023-03-13T06:56:36;10.30;99.90
3846;DHT22;1938;50.812;7.738;2023-03-13T06:59:02;10.40;99.90
3846;DHT22;1938;50.812;7.738;2023-03-13T07:01:28;10.50;99.90
3846;DHT22;1938;50.812;7.738;2023-03-13T07:03:54;10.60;99.90
3846;DHT22;1938;50.812;7.738;2023-03-13T07:06:20;10.70;99.90
3846;DHT22;1938;50.812;7.738;2023-03-13T07:08:45;10.90;99.90
3846;DHT22;1938;50.812;7.738;2023-03-13T07:11:12;11.00;99.90
3846;DHT22;1938;50.812;7.738;2023-03-13T07:13:39;11.10;99.90
3846;DHT22;1938;50.812;7.738;2023-03-13T07:16:09;11.20;99.90
3846;DHT22;1938;50.812;7.738;2023-03-13T07:18:35;11.30;99.90
3846;DHT22;1938;50.812;7.738;2023-03-13T07:21:03;11.30;99.90
3846;DHT22;1938;50.812;7.738;2023-03-13T07:23:33;11.40;99.90
3846;DHT22;1938;50.812;7.738;2023-03-13T07:26:01;11.40;99.90
3846;DHT22;1938;50.812;7.738;2023-03-13T07:28:28;11.50;99.90
3846;DHT22;1938;50.812;7.738;2023-03-13T07:31:11;11.50;99.90
3846;DHT22;1938;50.812;7.738;2023-03-13T07:33:38;11.50;99.90
3846;DHT22;1938;50.812;7.738;2023-03-13T07:36:04;11.60;99.90
3846;DHT22;1938;50.812;7.738;2023-03-13T07:38:31;11.60;99.90
3846;DHT22;1938;50.812;7.738;2023-03-13T07:40:57;11.60;99.90
3846;DHT22;1938;50.812;7.738;2023-03-13T07:43:24;11.60;99.90
3846;DHT22;1938;50.812;7.738;2023-03-13T07:45:58;11.70;99.90
3846;DHT22;1938;50.812;7.738;2023-03-13T07:48:43;11.70;99.90
3846;DHT22;1938;50.812;7.738;2023-03-13T07:51:20;11.70;99.90
3846;DHT22;1938;50.812;7.738;2023-03-13T07:53:46;11.70;99.90
3846;DHT22;1938;50.812;7.738;2023-03-13T07:56:14;11.80;99.90
3846;DHT22;1938;50.812;7.738;2023-03-13T07:58:41;11.80;99.90
3846;DHT22;1938;50.812;7.738;2023-03-13T08:01:15;11.80;99.90
3846;DHT22;1938;50.812;7.738;2023-03-13T08:03:41;11.80;99.90
3846;DHT22;1938;50.812;7.738;2023-03-13T08:06:14;11.80;99.90
3846;DHT22;1938;50.812;7.738;2023-03-13T08:08:41;11.90;99.90
3846;DHT22;1938;50.812;7.738;2023-03-13T08:11:15;11.70;99.90
3846;DHT22;1938;50.812;7.738;2023-03-13T08:13:42;11.60;99.90
3846;DHT22;1938;50.812;7.738;2023-03-13T08:16:15;11.60;99.90
3846;DHT22;1938;50.812;7.738;2023-03-13T08:18:46;11.50;99.90
3846;DHT22;1938;50.812;7.738;2023-03-13T08:21:33;11.60;99.90
3846;DHT22;1938;50.812;7.738;2023-03-13T08:24:02;11.70;99.90
3846;DHT22;1938;50.812;7.738;2023-03-13T08:26:30;11.80;99.90
3846;DHT22;1938;50.812;7.738;2023-03-13T08:28:58;11.90;99.90
3846;DHT22;1938;50.812;7.738;2023-03-13T08:31:26;11.90;99.90
3846;DHT22;1938;50.812;7.738;2023-03-13T08:33:52;12.00;99.90
3846;DHT22;1938;50.812;7.738;2023-03-13T08:36:22;12.00;99.90
3846;DHT22;1938;50.812;7.738;2023-03-13T08:38:51;12.10;99.90
3846;DHT22;1938;50.812;7.738;2023-03-13T08:41:20;12.20;99.90
3846;DHT22;1938;50.812;7.738;2023-03-13T08:43:47;12.10;99.90
3846;DHT22;1938;50.812;7.738;2023-03-13T08:46:13;12.00;99.90
3846;DHT22;1938;50.812;7.738;2023-03-13T08:48:39;12.00;99.90
3846;DHT22;1938;50.812;7.738;2023-03-13T08:51:12;12.00;99.90
3846;DHT22;1938;50.812;7.738;2023-03-13T08:53:40;12.00;99.90
3846;DHT22;1938;50.812;7.738;2023-03-13T08:56:08;12.00;99.90
3846;DHT22;1938;50.812;7.738;2023-03-13T08:58:34;12.10;99.90
3846;DHT22;1938;50.812;7.738;2023-03-13T09:01:05;12.10;99.90
3846;DHT22;1938;50.812;7.738;2023-03-13T09:03:31;12.10;99.90
3846;DHT22;1938;50.812;7.738;2023-03-13T09:05:59;12.10;99.90
3846;DHT22;1938;50.812;7.738;2023-03-13T09:08:26;12.10;55.00
3846;DHT22;1938;50.812;7.738;2023-03-13T09:10:55;12.10;81.60
3846;DHT22;1938;50.812;7.738;2023-03-13T09:13:22;12.10;54.30
3846;DHT22;1938;50.812;7.738;2023-03-13T09:16:01;12.10;42.00
3846;DHT22;1938;50.812;7.738;2023-03-13T09:18:28;12.20;32.50
3846;DHT22;1938;50.812;7.738;2023-03-13T09:20:54;12.30;1.00
3846;DHT22;1938;50.812;7.738;2023-03-13T09:23:20;12.30;14.30
3846;DHT22;1938;50.812;7.738;2023-03-13T09:25:46;12.30;1.00
3846;DHT22;1938;50.812;7.738;2023-03-13T09:28:13;12.30;1.00
3846;DHT22;1938;50.812;7.738;2023-03-13T09:30:39;12.40;7.80
3846;DHT22;1938;50.812;7.738;2023-03-13T09:33:04;12.40;1.00
3846;DHT22;1938;50.812;7.738;2023-03-13T09:35:30;12.40;1.00
3846;DHT22;1938;50.812;7.738;2023-03-13T09:37:55;12.40;1.00
3846;DHT22;1938;50.812;7.738;2023-03-13T09:40:23;12.50;1.00
3846;DHT22;1938;50.812;7.738;2023-03-13T09:42:56;12.50;1.00
3846;DHT22;1938;50.812;7.738;2023-03-13T09:45:35;12.50;1.00
3846;DHT22;1938;50.812;7.738;2023-03-13T09:48:12;12.60;1.00
3846;DHT22;1938;50.812;7.738;2023-03-13T09:50:55;12.60;1.00
3846;DHT22;1938;50.812;7.738;2023-03-13T09:53:36;12.60;99.90
3846;DHT22;1938;50.812;7.738;2023-03-13T09:56:04;12.60;1.00
3846;DHT22;1938;50.812;7.738;2023-03-13T09:58:36;12.60;1.00
3846;DHT22;1938;50.812;7.738;2023-03-13T10:01:05;12.70;29.20
3846;DHT22;1938;50.812;7.738;2023-03-13T10:03:34;12.80;44.30
3846;DHT22;1938;50.812;7.738;2023-03-13T10:06:17;12.90;41.50
3846;DHT22;1938;50.812;7.738;2023-03-13T10:08:43;12.90;58.50
3846;DHT22;1938;50.812;7.738;2023-03-13T10:11:26;13.00;52.30
3846;DHT22;1938;50.812;7.738;2023-03-13T10:13:54;13.00;99.90
3846;DHT22;1938;50.812;7.738;2023-03-13T10:18:58;12.80;99.90
3846;DHT22;1938;50.812;7.738;2023-03-13T10:21:35;12.80;99.90
3846;DHT22;1938;50.812;7.738;2023-03-13T10:24:05;12.80;99.90
3846;DHT22;1938;50.812;7.738;2023-03-13T10:26:36;12.80;99.90
3846;DHT22;1938;50.812;7.738;2023-03-13T10:29:20;12.80;99.90
3846;DHT22;1938;50.812;7.738;2023-03-13T10:31:57;12.80;99.90
3846;DHT22;1938;50.812;7.738;2023-03-13T10:34:25;12.80;99.90
3846;DHT22;1938;50.812;7.738;2023-03-13T10:36:58;12.70;99.90
3846;DHT22;1938;50.812;7.738;2023-03-13T10:39:26;12.80;99.90
3846;DHT22;1938;50.812;7.738;2023-03-13T10:44:42;12.70;99.90
3846;DHT22;1938;50.812;7.738;2023-03-13T10:47:11;12.70;99.90
3846;DHT22;1938;50.812;7.738;2023-03-13T10:49:54;12.70;99.90
3846;DHT22;1938;50.812;7.738;2023-03-13T10:52:49;12.60;99.90
3846;DHT22;1938;50.812;7.738;2023-03-13T10:55:21;12.50;99.90
3846;DHT22;1938;50.812;7.738;2023-03-13T10:58:05;12.50;99.90
3846;DHT22;1938;50.812;7.738;2023-03-13T11:00:36;12.50;99.90
3846;DHT22;1938;50.812;7.738;2023-03-13T11:03:30;12.50;99.90
3846;DHT22;1938;50.812;7.738;2023-03-13T11:05:58;12.50;99.90
3846;DHT22;1938;50.812;7.738;2023-03-13T11:08:35;12.50;99.90
3846;DHT22;1938;50.812;7.738;2023-03-13T11:11:03;12.50;99.90
3846;DHT22;1938;50.812;7.738;2023-03-13T11:13:39;12.50;99.90
3846;DHT22;1938;50.812;7.738;2023-03-13T11:16:25;12.50;99.90
3846;DHT22;1938;50.812;7.738;2023-03-13T11:21:49;12.50;99.90
3846;DHT22;1938;50.812;7.738;2023-03-13T11:27:43;12.60;99.90
3846;DHT22;1938;50.812;7.738;2023-03-13T11:32:52;12.70;99.90
3846;DHT22;1938;50.812;7.738;2023-03-13T11:38:16;12.90;99.90
3846;DHT22;1938;50.812;7.738;2023-03-13T11:41:09;12.90;99.90
3846;DHT22;1938;50.812;7.738;2023-03-13T11:46:48;12.90;99.90
3846;DHT22;1938;50.812;7.738;2023-03-13T11:57:33;13.00;99.90
3846;DHT22;1938;50.812;7.738;2023-03-13T12:05:50;12.40;99.90
3846;DHT22;1938;50.812;7.738;2023-03-13T12:08:40;12.20;99.90
3846;DHT22;1938;50.812;7.738;2023-03-13T12:11:20;12.20;99.90
3846;DHT22;1938;50.812;7.738;2023-03-13T12:14:00;12.10;99.90
3846;DHT22;1938;50.812;7.738;2023-03-13T12:16:40;12.10;99.90
3846;DHT22;1938;50.812;7.738;2023-03-13T12:19:10;12.10;99.90
3846;DHT22;1938;50.812;7.738;2023-03-13T12:21:56;12.10;99.90
3846;DHT22;1938;50.812;7.738;2023-03-13T12:24:29;12.20;99.90
3846;DHT22;1938;50.812;7.738;2023-03-13T12:27:01;12.20;99.90
3846;DHT22;1938;50.812;7.738;2023-03-13T12:33:04;12.20;99.90
3846;DHT22;1938;50.812;7.738;2023-03-13T12:35:35;12.10;99.90
3846;DHT22;1938;50.812;7.738;2023-03-13T12:38:15;12.10;99.90
3846;DHT22;1938;50.812;7.738;2023-03-13T12:40:51;12.20;99.90
3846;DHT22;1938;50.812;7.738;2023-03-13T12:43:28;12.30;99.90
3846;DHT22;1938;50.812;7.738;2023-03-13T12:51:24;12.70;99.90
3846;DHT22;1938;50.812;7.738;2023-03-13T12:54:19;12.80;99.90
3846;DHT22;1938;50.812;7.738;2023-03-13T12:59:33;13.00;99.90
3846;DHT22;1938;50.812;7.738;2023-03-13T13:01:59;13.00;99.90
3846;DHT22;1938;50.812;7.738;2023-03-13T13:04:40;13.10;99.90
3846;DHT22;1938;50.812;7.738;2023-03-13T13:12:45;13.20;99.90
3846;DHT22;1938;50.812;7.738;2023-03-13T13:15:21;13.20;99.90
3846;DHT22;1938;50.812;7.738;2023-03-13T13:18:29;13.20;99.90
3846;DHT22;1938;50.812;7.738;2023-03-13T13:23:41;13.20;99.90
3846;DHT22;1938;50.812;7.738;2023-03-13T13:26:37;13.20;99.90
3846;DHT22;1938;50.812;7.738;2023-03-13T13:31:56;13.20;99.90
3846;DHT22;1938;50.812;7.738;2023-03-13T13:39:45;13.10;99.90
3846;DHT22;1938;50.812;7.738;2023-03-13T13:47:39;13.00;99.90
3846;DHT22;1938;50.812;7.738;2023-03-13T13:50:22;13.00;99.90
3846;DHT22;1938;50.812;7.738;2023-03-13T13:52:49;13.00;99.90
3846;DHT22;1938;50.812;7.738;2023-03-13T13:55:41;13.00;99.90
3846;DHT22;1938;50.812;7.738;2023-03-13T13:58:19;13.00;99.90
3846;DHT22;1938;50.812;7.738;2023-03-13T14:00:52;13.10;99.90
3846;DHT22;1938;50.812;7.738;2023-03-13T14:03:24;13.20;99.90
3846;DHT22;1938;50.812;7.738;2023-03-13T14:05:56;13.30;99.90
3846;DHT22;1938;50.812;7.738;2023-03-13T14:08:29;13.50;99.90
3846;DHT22;1938;50.812;7.738;2023-03-13T14:13:39;14.00;99.90
3846;DHT22;1938;50.812;7.738;2023-03-13T14:16:19;14.10;99.90
3846;DHT22;1938;50.812;7.738;2023-03-13T14:18:45;14.10;99.90
3846;DHT22;1938;50.812;7.738;2023-03-13T14:21:11;14.20;99.90
3846;DHT22;1938;50.812;7.738;2023-03-13T14:23:42;14.20;50.20
3846;DHT22;1938;50.812;7.738;2023-03-13T14:26:21;14.20;91.80
3846;DHT22;1938;50.812;7.738;2023-03-13T14:28:49;14.20;36.80
3846;DHT22;1938;50.812;7.738;2023-03-13T14:33:57;14.20;1.00
3846;DHT22;1938;50.812;7.738;2023-03-13T14:36:23;14.20;1.00
3846;DHT22;1938;50.812;7.738;2023-03-13T14:38:57;14.10;1.00
3846;DHT22;1938;50.812;7.738;2023-03-13T14:41:30;14.10;56.10
3846;DHT22;1938;50.812;7.738;2023-03-13T14:44:13;14.00;99.90
3846;DHT22;1938;50.812;7.738;2023-03-13T14:46:41;14.10;99.90
3846;DHT22;1938;50.812;7.738;2023-03-13T14:49:21;14.10;90.60
3846;DHT22;1938;50.812;7.738;2023-03-13T14:52:04;14.10;97.70
3846;DHT22;1938;50.812;7.738;2023-03-13T14:54:51;14.20;91.00
3846;DHT22;1938;50.812;7.738;2023-03-13T14:57:21;14.30;75.30
3846;DHT22;1938;50.812;7.738;2023-03-13T14:59:48;14.30;48.40
3846;DHT22;1938;50.812;7.738;2023-03-13T15:02:29;14.20;99.90
3846;DHT22;1938;50.812;7.738;2023-03-13T15:05:03;14.40;99.90
3846;DHT22;1938;50.812;7.738;2023-03-13T15:07:40;14.40;99.90
3846;DHT22;1938;50.812;7.738;2023-03-13T15:10:20;14.40;99.90
3846;DHT22;1938;50.812;7.738;2023-03-13T15:12:46;14.40;99.90
3846;DHT22;1938;50.812;7.738;2023-03-13T15:15:11;14.40;99.90
3846;DHT22;1938;50.812;7.738;2023-03-13T15:17:38;14.40;1.00
3846;DHT22;1938;50.812;7.738;2023-03-13T15:20:04;14.40;10.70
3846;DHT22;1938;50.812;7.738;2023-03-13T15:22:38;14.40;99.90
3846;DHT22;1938;50.812;7.738;2023-03-13T15:25:22;14.40;1.00
3846;DHT22;1938;50.812;7.738;2023-03-13T15:27:48;14.40;12.10
3846;DHT22;1938;50.812;7.738;2023-03-13T15:30:16;14.30;1.00
3846;DHT22;1938;50.812;7.738;2023-03-13T15:32:42;14.30;18.50
3846;DHT22;1938;50.812;7.738;2023-03-13T15:35:30;14.30;99.90
3846;DHT22;1938;50.812;7.738;2023-03-13T15:37:57;14.20;99.90
3846;DHT22;1938;50.812;7.738;2023-03-13T15:40:24;14.20;99.90
3846;DHT22;1938;50.812;7.738;2023-03-13T15:42:50;14.20;99.90
3846;DHT22;1938;50.812;7.738;2023-03-13T15:45:18;14.20;99.90
3846;DHT22;1938;50.812;7.738;2023-03-13T15:47:44;14.20;99.90
3846;DHT22;1938;50.812;7.738;2023-03-13T15:50:16;14.20;6.40
3846;DHT22;1938;50.812;7.738;2023-03-13T15:52:42;14.20;1.00
3846;DHT22;1938;50.812;7.738;2023-03-13T15:55:10;14.30;1.00
3846;DHT22;1938;50.812;7.738;2023-03-13T15:57:41;14.30;1.00
3846;DHT22;1938;50.812;7.738;2023-03-13T16:00:17;14.30;1.00
3846;DHT22;1938;50.812;7.738;2023-03-13T16:02:43;14.30;1.00
3846;DHT22;1938;50.812;7.738;2023-03-13T16:05:10;14.30;99.90
3846;DHT22;1938;50.812;7.738;2023-03-13T16:07:36;14.30;99.90
3846;DHT22;1938;50.812;7.738;2023-03-13T16:10:02;14.30;99.90
3846;DHT22;1938;50.812;7.738;2023-03-13T16:12:28;14.20;99.90
3846;DHT22;1938;50.812;7.738;2023-03-13T16:14:55;14.20;99.90
3846;DHT22;1938;50.812;7.738;2023-03-13T16:17:20;14.20;99.90
3846;DHT22;1938;50.812;7.738;2023-03-13T16:19:47;14.20;99.90
3846;DHT22;1938;50.812;7.738;2023-03-13T16:22:13;14.10;99.90
3846;DHT22;1938;50.812;7.738;2023-03-13T16:24:40;14.10;99.50
3846;DHT22;1938;50.812;7.738;2023-03-13T16:27:12;14.10;98.10
3846;DHT22;1938;50.812;7.738;2023-03-13T16:29:38;14.10;1.00
3846;DHT22;1938;50.812;7.738;2023-03-13T16:32:04;14.10;23.20
3846;DHT22;1938;50.812;7.738;2023-03-13T16:34:31;14.10;1.00
3846;DHT22;1938;50.812;7.738;2023-03-13T16:36:56;14.10;1.00
3846;DHT22;1938;50.812;7.738;2023-03-13T16:39:22;14.10;1.00
3846;DHT22;1938;50.812;7.738;2023-03-13T16:41:47;14.10;1.00
3846;DHT22;1938;50.812;7.738;2023-03-13T16:44:13;14.10;1.00
3846;DHT22;1938;50.812;7.738;2023-03-13T16:46:41;14.10;1.00
3846;DHT22;1938;50.812;7.738;2023-03-13T16:49:12;14.10;1.00
3846;DHT22;1938;50.812;7.738;2023-03-13T16:51:38;14.10;8.50
3846;DHT22;1938;50.812;7.738;2023-03-13T16:54:05;14.10;51.20
3846;DHT22;1938;50.812;7.738;2023-03-13T16:56:39;14.00;99.90
3846;DHT22;1938;50.812;7.738;2023-03-13T16:59:09;13.90;1.00
3846;DHT22;1938;50.812;7.738;2023-03-13T17:01:36;13.90;99.90
3846;DHT22;1938;50.812;7.738;2023-03-13T17:04:02;13.80;99.90
3846;DHT22;1938;50.812;7.738;2023-03-13T17:06:36;13.80;99.90
3846;DHT22;1938;50.812;7.738;2023-03-13T17:09:05;13.70;99.90
3846;DHT22;1938;50.812;7.738;2023-03-13T17:11:34;13.70;99.90
3846;DHT22;1938;50.812;7.738;2023-03-13T17:13:59;13.70;99.90
3846;DHT22;1938;50.812;7.738;2023-03-13T17:16:33;13.60;99.90
3846;DHT22;1938;50.812;7.738;2023-03-13T17:18:59;13.50;99.90
3846;DHT22;1938;50.812;7.738;2023-03-13T17:21:28;13.50;99.90
3846;DHT22;1938;50.812;7.738;2023-03-13T17:23:54;13.50;99.90
3846;DHT22;1938;50.812;7.738;2023-03-13T17:26:32;13.40;99.90
3846;DHT22;1938;50.812;7.738;2023-03-13T17:28:58;13.40;99.90
3846;DHT22;1938;50.812;7.738;2023-03-13T17:31:26;13.30;99.90
3846;DHT22;1938;50.812;7.738;2023-03-13T17:33:52;13.40;99.90
3846;DHT22;1938;50.812;7.738;2023-03-13T17:36:23;13.40;99.90
3846;DHT22;1938;50.812;7.738;2023-03-13T17:38:57;13.30;99.90
3846;DHT22;1938;50.812;7.738;2023-03-13T17:41:30;13.30;99.90
3846;DHT22;1938;50.812;7.738;2023-03-13T17:43:56;13.30;99.90
3846;DHT22;1938;50.812;7.738;2023-03-13T17:46:39;13.30;99.90
3846;DHT22;1938;50.812;7.738;2023-03-13T17:49:05;13.20;99.90
3846;DHT22;1938;50.812;7.738;2023-03-13T17:51:33;13.20;99.90